createdAt,value
2019-01-15T00:00:32.581Z,1001.17
2019-01-15T00:01:32.597Z,1001.2
2019-01-15T00:02:32.613Z,1001.21
2019-01-15T00:03:32.635Z,1001.17
2019-01-15T00:04:32.647Z,1001.16
2019-01-15T00:05:32.667Z,1001.16
2019-01-15T00:06:32.681Z,1001.16
2019-01-15T00:07:32.699Z,1001.11
2019-01-15T00:08:32.717Z,1001.16
2019-01-15T00:09:32.729Z,1001.17
2019-01-15T00:10:32.747Z,1001.16
2019-01-15T00:11:32.762Z,1001.2
2019-01-15T00:12:32.779Z,1001.21
2019-01-15T00:13:32.796Z,1001.18
2019-01-15T00:14:32.813Z,1001.17
2019-01-15T00:15:32.831Z,1001.13
2019-01-15T00:16:32.845Z,1001.11
2019-01-15T00:17:32.865Z,1001.1
2019-01-15T00:18:32.883Z,1001.04
2019-01-15T00:19:32.896Z,1001.11
2019-01-15T00:20:32.911Z,1001.1
2019-01-15T00:21:32.928Z,1001.18
2019-01-15T00:22:32.947Z,1001.18
2019-01-15T00:23:32.962Z,1001.18
2019-01-15T00:24:32.981Z,1001.13
2019-01-15T00:25:32.998Z,1001.09
2019-01-15T00:26:33.009Z,1001.15
2019-01-15T00:27:33.030Z,1001.1
2019-01-15T00:28:33.044Z,1001.08
2019-01-15T00:29:33.060Z,1001.12
2019-01-15T00:30:33.080Z,1001.12
2019-01-15T00:31:33.092Z,1001.13
2019-01-15T00:32:33.113Z,1001.12
2019-01-15T00:33:33.124Z,1001.08
2019-01-15T00:34:33.141Z,1001.08
2019-01-15T00:35:33.159Z,1001.11
2019-01-15T00:36:33.175Z,1001.09
2019-01-15T00:37:33.190Z,1001.08
2019-01-15T00:38:33.212Z,1001.11
2019-01-15T00:39:33.223Z,1001.08
2019-01-15T00:40:33.245Z,1001.08
2019-01-15T00:41:33.261Z,1001.15
2019-01-15T00:42:33.277Z,1001.15
2019-01-15T00:43:33.293Z,1001.16
2019-01-15T00:44:33.308Z,1001.17
2019-01-15T00:45:33.328Z,1001.16
2019-01-15T00:46:33.338Z,1001.18
2019-01-15T00:47:33.355Z,1001.2
2019-01-15T00:48:33.372Z,1001.22
2019-01-15T00:49:33.388Z,1001.18
2019-01-15T00:50:33.409Z,1001.18
2019-01-15T00:51:33.427Z,1001.15
2019-01-15T00:52:33.438Z,1001.13
2019-01-15T00:53:33.456Z,1001.21
2019-01-15T00:54:33.475Z,1001.15
2019-01-15T00:55:33.487Z,1001.16
2019-01-15T00:56:33.506Z,1001.17
2019-01-15T00:57:33.520Z,1001.14
2019-01-15T00:58:33.536Z,1001.18
2019-01-15T00:59:33.553Z,1001.17
2019-01-15T01:00:33.573Z,1001.18
2019-01-15T01:01:33.585Z,1001.19
2019-01-15T01:02:33.603Z,1001.18
2019-01-15T01:03:33.618Z,1001.17
2019-01-15T01:04:33.642Z,1001.16
2019-01-15T01:05:33.652Z,1001.22
2019-01-15T01:06:33.667Z,1001.21
2019-01-15T01:07:33.684Z,1001.22
2019-01-15T01:08:33.700Z,1001.23
2019-01-15T01:09:33.721Z,1001.16
2019-01-15T01:10:33.733Z,1001.22
2019-01-15T01:11:33.750Z,1001.26
2019-01-15T01:12:33.767Z,1001.24
2019-01-15T01:13:33.788Z,1001.31
2019-01-15T01:14:33.816Z,1001.32
2019-01-15T01:15:33.814Z,1001.26
2019-01-15T01:16:33.884Z,1001.26
2019-01-15T01:17:33.853Z,1001.22
2019-01-15T01:18:33.866Z,1001.26
2019-01-15T01:19:33.881Z,1001.22
2019-01-15T01:20:33.897Z,1001.26
2019-01-15T01:21:33.914Z,1001.22
2019-01-15T01:22:33.931Z,1001.27
2019-01-15T01:23:33.951Z,1001.27
2019-01-15T01:24:33.964Z,1001.3
2019-01-15T01:25:33.981Z,1001.3
2019-01-15T01:26:34.002Z,1001.28
2019-01-15T01:27:34.015Z,1001.34
2019-01-15T01:28:34.030Z,1001.31
2019-01-15T01:29:34.050Z,1001.4
2019-01-15T01:30:34.064Z,1001.37
2019-01-15T01:31:34.080Z,1001.4
2019-01-15T01:32:34.096Z,1001.4
2019-01-15T01:33:34.113Z,1001.42
2019-01-15T01:34:34.132Z,1001.45
2019-01-15T01:35:34.146Z,1001.41
2019-01-15T01:36:34.162Z,1001.44
2019-01-15T01:37:34.178Z,1001.4
2019-01-15T01:38:34.194Z,1001.38
2019-01-15T01:39:34.211Z,1001.28
2019-01-15T01:40:34.227Z,1001.2
2019-01-15T01:41:34.246Z,1001.2
2019-01-15T01:42:34.261Z,1001.21
2019-01-15T01:43:34.279Z,1001.22
2019-01-15T01:44:34.294Z,1001.29
2019-01-15T01:45:34.309Z,1001.24
2019-01-15T01:46:34.329Z,1001.27
2019-01-15T01:47:34.346Z,1001.27
2019-01-15T01:48:34.363Z,1001.27
2019-01-15T01:49:34.379Z,1001.31
2019-01-15T01:50:34.396Z,1001.32
2019-01-15T01:51:34.412Z,1001.37
2019-01-15T01:52:34.429Z,1001.39
2019-01-15T01:53:34.444Z,1001.41
2019-01-15T01:54:34.459Z,1001.45
2019-01-15T01:55:34.474Z,1001.47
2019-01-15T01:56:34.489Z,1001.49
2019-01-15T01:57:34.505Z,1001.49
2019-01-15T01:58:34.522Z,1001.46
2019-01-15T01:59:34.541Z,1001.48
2019-01-15T02:00:34.555Z,1001.55
2019-01-15T02:01:34.575Z,1001.56
2019-01-15T02:02:34.590Z,1001.56
2019-01-15T02:03:34.604Z,1001.58
2019-01-15T02:04:34.619Z,1001.6
2019-01-15T02:05:34.641Z,1001.6
2019-01-15T02:06:34.658Z,1001.59
2019-01-15T02:07:34.672Z,1001.58
2019-01-15T02:08:34.685Z,1001.59
2019-01-15T02:09:34.746Z,1001.57
2019-01-15T02:10:34.721Z,1001.49
2019-01-15T02:11:34.734Z,1001.51
2019-01-15T02:12:36.913Z,1001.46
2019-01-15T02:13:34.770Z,1001.47
2019-01-15T02:14:34.787Z,1001.44
2019-01-15T02:15:34.799Z,1001.43
2019-01-15T02:16:34.818Z,1001.51
2019-01-15T02:17:34.837Z,1001.49
2019-01-15T02:18:34.853Z,1001.45
2019-01-15T02:19:34.863Z,1001.43
2019-01-15T02:20:34.886Z,1001.46
2019-01-15T02:21:34.896Z,1001.45
2019-01-15T02:22:34.913Z,1001.45
2019-01-15T02:23:34.934Z,1001.43
2019-01-15T02:24:34.950Z,1001.46
2019-01-15T02:25:34.961Z,1001.41
2019-01-15T02:26:34.984Z,1001.38
2019-01-15T02:27:34.993Z,1001.32
2019-01-15T02:28:35.010Z,1001.29
2019-01-15T02:29:35.026Z,1001.27
2019-01-15T02:30:35.049Z,1001.25
2019-01-15T02:31:35.064Z,1001.23
2019-01-15T02:32:35.075Z,1001.25
2019-01-15T02:33:35.096Z,1001.26
2019-01-15T02:34:35.109Z,1001.25
2019-01-15T02:35:35.124Z,1001.2
2019-01-15T02:36:35.142Z,1001.24
2019-01-15T02:37:35.166Z,1001.27
2019-01-15T02:38:35.180Z,1001.28
2019-01-15T02:39:35.189Z,1001.29
2019-01-15T02:40:35.211Z,1001.25
2019-01-15T02:41:35.227Z,1001.22
2019-01-15T02:42:35.251Z,1001.22
2019-01-15T02:43:35.256Z,1001.27
2019-01-15T02:44:35.277Z,1001.23
2019-01-15T02:45:35.292Z,1001.14
2019-01-15T02:46:35.307Z,1001.23
2019-01-15T02:47:35.322Z,1001.18
2019-01-15T02:48:35.340Z,1001.12
2019-01-15T02:49:35.354Z,1001.1
2019-01-15T02:50:35.370Z,1001.11
2019-01-15T02:51:35.386Z,1001.01
2019-01-15T02:52:35.402Z,1001.09
2019-01-15T02:53:35.418Z,1001.08
2019-01-15T02:54:35.435Z,1001.04
2019-01-15T02:55:35.452Z,1001.06
2019-01-15T02:56:35.466Z,1001.05
2019-01-15T02:57:35.487Z,1001.07
2019-01-15T02:58:35.500Z,1001.07
2019-01-15T02:59:35.516Z,1001.11
2019-01-15T03:00:35.533Z,1001.13
2019-01-15T03:01:35.555Z,1001.05
2019-01-15T03:02:35.596Z,1001.11
2019-01-15T03:03:35.584Z,1001.08
2019-01-15T03:04:35.598Z,1001.06
2019-01-15T03:05:35.620Z,1001.01
2019-01-15T03:06:35.636Z,1000.99
2019-01-15T03:07:35.647Z,1000.98
2019-01-15T03:08:35.668Z,1000.97
2019-01-15T03:09:35.681Z,1000.96
2019-01-15T03:10:35.699Z,1000.96
2019-01-15T03:11:35.718Z,1001.01
2019-01-15T03:12:35.741Z,1001
2019-01-15T03:13:35.746Z,1001.04
2019-01-15T03:14:35.765Z,1001
2019-01-15T03:15:35.778Z,1000.97
2019-01-15T03:16:35.800Z,1000.97
2019-01-15T03:17:35.815Z,1001.06
2019-01-15T03:18:35.827Z,1001
2019-01-15T03:19:35.847Z,1001.01
2019-01-15T03:20:35.865Z,1000.99
2019-01-15T03:21:35.881Z,1001.01
2019-01-15T03:22:35.894Z,1001
2019-01-15T03:23:35.917Z,1000.99
2019-01-15T03:24:35.930Z,1001.06
2019-01-15T03:25:35.942Z,1001.01
2019-01-15T03:26:35.959Z,1001.04
2019-01-15T03:27:35.976Z,1001.04
2019-01-15T03:28:35.996Z,1001.12
2019-01-15T03:29:36.007Z,1001.12
2019-01-15T03:30:36.028Z,1001.11
2019-01-15T03:31:36.046Z,1001.07
2019-01-15T03:32:36.059Z,1001.1
2019-01-15T03:33:36.077Z,1001.14
2019-01-15T03:34:36.091Z,1001.04
2019-01-15T03:35:36.111Z,1001.03
2019-01-15T03:36:37.734Z,1001.05
2019-01-15T03:37:36.138Z,1001.07
2019-01-15T03:38:36.156Z,1001.04
2019-01-15T03:39:36.170Z,1001.07
2019-01-15T03:40:36.197Z,1001.07
2019-01-15T03:41:36.202Z,1001.08
2019-01-15T03:42:36.223Z,1001.01
2019-01-15T03:43:36.236Z,1001.05
2019-01-15T03:44:36.259Z,1001.12
2019-01-15T03:45:36.274Z,1001.14
2019-01-15T03:46:36.284Z,1001.16
2019-01-15T03:47:36.305Z,1001.12
2019-01-15T03:48:36.322Z,1001.12
2019-01-15T03:49:36.334Z,1001.15
2019-01-15T03:50:36.356Z,1001.11
2019-01-15T03:51:36.365Z,1001.1
2019-01-15T03:52:36.388Z,1001.11
2019-01-15T03:53:36.401Z,1001.12
2019-01-15T03:54:36.419Z,1001.14
2019-01-15T03:55:36.430Z,1001.15
2019-01-15T03:56:36.453Z,1001.15
2019-01-15T03:57:36.466Z,1001.19
2019-01-15T03:58:36.485Z,1001.21
2019-01-15T03:59:36.497Z,1001.23
2019-01-15T04:00:36.512Z,1001.22
2019-01-15T04:01:36.533Z,1001.22
2019-01-15T04:02:36.549Z,1001.23
2019-01-15T04:03:36.565Z,1001.27
2019-01-15T04:04:36.581Z,1001.27
2019-01-15T04:05:36.593Z,1001.24
2019-01-15T04:06:36.615Z,1001.19
2019-01-15T04:07:36.628Z,1001.24
2019-01-15T04:08:36.647Z,1001.19
2019-01-15T04:09:36.666Z,1001.2
2019-01-15T04:10:36.675Z,1001.14
2019-01-15T04:11:36.692Z,1001.09
2019-01-15T04:12:36.708Z,1001.11
2019-01-15T04:13:36.723Z,1001.1
2019-01-15T04:14:36.740Z,1001.05
2019-01-15T04:15:36.755Z,1001.05
2019-01-15T04:16:36.777Z,1001.04
2019-01-15T04:17:36.793Z,1001.08
2019-01-15T04:18:36.809Z,1001.07
2019-01-15T04:19:36.822Z,1001.05
2019-01-15T04:20:36.848Z,1001.04
2019-01-15T04:21:36.859Z,1001.05
2019-01-15T04:22:36.871Z,1001.07
2019-01-15T04:23:36.887Z,1001.06
2019-01-15T04:24:36.903Z,1001.06
2019-01-15T04:25:37.293Z,1000.99
2019-01-15T04:26:36.949Z,1001.01
2019-01-15T04:27:36.952Z,1001.08
2019-01-15T04:28:36.971Z,1001
2019-01-15T04:29:36.984Z,1000.95
2019-01-15T04:30:37.003Z,1000.97
2019-01-15T04:31:37.020Z,1000.93
2019-01-15T04:32:37.036Z,1000.97
2019-01-15T04:33:37.049Z,1000.98
2019-01-15T04:34:37.069Z,1000.95
2019-01-15T04:35:37.081Z,1000.94
2019-01-15T04:36:37.099Z,1000.97
2019-01-15T04:37:37.118Z,1000.96
2019-01-15T04:38:37.131Z,1000.92
2019-01-15T04:39:37.148Z,1000.96
2019-01-15T04:40:37.164Z,1000.95
2019-01-15T04:41:37.184Z,1000.97
2019-01-15T04:42:37.196Z,1001.01
2019-01-15T04:43:37.211Z,1000.94
2019-01-15T04:44:37.233Z,1000.92
2019-01-15T04:45:37.243Z,1000.92
2019-01-15T04:46:37.263Z,1000.91
2019-01-15T04:47:37.278Z,1000.88
2019-01-15T04:48:37.298Z,1000.87
2019-01-15T04:49:37.308Z,1000.85
2019-01-15T04:50:37.333Z,1000.84
2019-01-15T04:51:37.342Z,1000.85
2019-01-15T04:52:37.360Z,1000.89
2019-01-15T04:53:37.376Z,1000.86
2019-01-15T04:54:37.389Z,1000.94
2019-01-15T04:55:37.424Z,1000.92
2019-01-15T04:56:37.426Z,1000.92
2019-01-15T04:57:37.439Z,1000.88
2019-01-15T04:58:37.455Z,1000.89
2019-01-15T04:59:37.476Z,1000.92
2019-01-15T05:00:37.490Z,1000.84
2019-01-15T05:01:37.504Z,1000.84
2019-01-15T05:02:37.522Z,1000.84
2019-01-15T05:03:37.536Z,1000.82
2019-01-15T05:04:37.558Z,1000.74
2019-01-15T05:05:37.569Z,1000.74
2019-01-15T05:06:37.586Z,1000.71
2019-01-15T05:07:37.601Z,1000.7
2019-01-15T05:08:37.627Z,1000.74
2019-01-15T05:09:37.639Z,1000.7
2019-01-15T05:10:37.655Z,1000.62
2019-01-15T05:11:37.681Z,1000.63
2019-01-15T05:12:37.681Z,1000.65
2019-01-15T05:13:37.705Z,1000.62
2019-01-15T05:14:37.718Z,1000.64
2019-01-15T05:15:37.730Z,1000.62
2019-01-15T05:16:37.747Z,1000.61
2019-01-15T05:17:37.769Z,1000.61
2019-01-15T05:18:37.788Z,1000.53
2019-01-15T05:19:37.796Z,1000.54
2019-01-15T05:20:37.819Z,1000.53
2019-01-15T05:21:37.837Z,1000.52
2019-01-15T05:22:37.847Z,1000.53
2019-01-15T05:23:37.872Z,1000.51
2019-01-15T05:24:37.887Z,1000.48
2019-01-15T05:25:37.897Z,1000.48
2019-01-15T05:26:37.914Z,1000.47
2019-01-15T05:27:37.933Z,1000.5
2019-01-15T05:28:37.943Z,1000.52
2019-01-15T05:29:37.965Z,1000.53
2019-01-15T05:30:37.976Z,1000.45
2019-01-15T05:31:37.992Z,1000.49
2019-01-15T05:32:38.011Z,1000.47
2019-01-15T05:33:38.024Z,1000.46
2019-01-15T05:34:38.041Z,1000.47
2019-01-15T05:35:38.065Z,1000.48
2019-01-15T05:36:38.074Z,1000.48
2019-01-15T05:37:38.089Z,1000.43
2019-01-15T05:38:38.109Z,1000.46
2019-01-15T05:39:38.127Z,1000.48
2019-01-15T05:40:38.138Z,1000.51
2019-01-15T05:41:38.155Z,1000.55
2019-01-15T05:42:38.174Z,1000.51
2019-01-15T05:43:38.189Z,1000.46
2019-01-15T05:44:38.210Z,1000.46
2019-01-15T05:45:38.227Z,1000.5
2019-01-15T05:46:38.241Z,1000.46
2019-01-15T05:47:38.256Z,1000.45
2019-01-15T05:48:38.268Z,1000.5
2019-01-15T05:49:38.285Z,1000.39
2019-01-15T05:50:38.302Z,1000.43
2019-01-15T05:51:38.320Z,1000.42
2019-01-15T05:52:38.336Z,1000.45
2019-01-15T05:53:38.351Z,1000.38
2019-01-15T05:54:38.367Z,1000.39
2019-01-15T05:55:38.385Z,1000.32
2019-01-15T05:56:38.399Z,1000.31
2019-01-15T05:57:38.415Z,1000.31
2019-01-15T05:58:38.437Z,1000.3
2019-01-15T05:59:38.447Z,1000.29
2019-01-15T06:00:38.464Z,1000.3
2019-01-15T06:01:38.481Z,1000.23
2019-01-15T06:02:38.495Z,1000.25
2019-01-15T06:03:38.511Z,1000.27
2019-01-15T06:04:38.528Z,1000.28
2019-01-15T06:05:38.549Z,1000.28
2019-01-15T06:06:38.563Z,1000.24
2019-01-15T06:07:38.577Z,1000.27
2019-01-15T06:08:38.601Z,1000.28
2019-01-15T06:09:38.613Z,1000.31
2019-01-15T06:10:38.630Z,1000.3
2019-01-15T06:11:38.642Z,1000.35
2019-01-15T06:12:38.660Z,1000.39
2019-01-15T06:13:42.562Z,1000.38
2019-01-15T06:14:38.690Z,1000.4
2019-01-15T06:15:38.707Z,1000.34
2019-01-15T06:16:38.727Z,1000.38
2019-01-15T06:17:38.740Z,1000.31
2019-01-15T06:18:38.755Z,1000.27
2019-01-15T06:19:38.775Z,1000.21
2019-01-15T06:20:38.786Z,1000.14
2019-01-15T06:21:38.803Z,1000.1
2019-01-15T06:22:38.819Z,1000.08
2019-01-15T06:23:38.837Z,1000.01
2019-01-15T06:24:38.853Z,999.98
2019-01-15T06:25:38.869Z,999.96
2019-01-15T06:26:38.885Z,1000.01
2019-01-15T06:27:38.904Z,1000.04
2019-01-15T06:28:38.920Z,1000.06
2019-01-15T06:29:38.933Z,1000.05
2019-01-15T06:30:38.949Z,1000.06
2019-01-15T06:31:38.963Z,1000.15
2019-01-15T06:32:38.980Z,1000.2
2019-01-15T06:33:39.001Z,1000.18
2019-01-15T06:34:39.014Z,1000.2
2019-01-15T06:35:39.028Z,1000.2
2019-01-15T06:36:39.046Z,1000.22
2019-01-15T06:37:39.079Z,1000.21
2019-01-15T06:38:39.079Z,1000.17
2019-01-15T06:39:39.093Z,1000.18
2019-01-15T06:40:39.108Z,1000.23
2019-01-15T06:41:39.126Z,1000.24
2019-01-15T06:42:39.146Z,1000.2
2019-01-15T06:43:39.162Z,1000.22
2019-01-15T06:44:39.175Z,1000.16
2019-01-15T06:45:39.190Z,1000.08
2019-01-15T06:46:39.205Z,999.95
2019-01-15T06:47:39.223Z,999.96
2019-01-15T06:48:39.240Z,999.88
2019-01-15T06:49:39.255Z,999.9
2019-01-15T06:50:39.271Z,999.93
2019-01-15T06:51:39.288Z,999.96
2019-01-15T06:52:39.301Z,999.94
2019-01-15T06:53:39.319Z,999.99
2019-01-15T06:54:39.334Z,999.98
2019-01-15T06:55:39.354Z,999.98
2019-01-15T06:56:39.371Z,999.89
2019-01-15T06:57:39.387Z,999.87
2019-01-15T06:58:39.405Z,999.81
2019-01-15T06:59:39.417Z,999.85
2019-01-15T07:00:39.432Z,999.78
2019-01-15T07:01:39.447Z,999.73
2019-01-15T07:02:39.464Z,999.79
2019-01-15T07:03:39.545Z,999.71
2019-01-15T07:04:43.721Z,999.75
2019-01-15T07:05:39.614Z,999.75
2019-01-15T07:06:39.527Z,999.71
2019-01-15T07:07:39.551Z,999.66
2019-01-15T07:08:39.558Z,999.67
2019-01-15T07:09:39.575Z,999.63
2019-01-15T07:10:39.591Z,999.68
2019-01-15T07:11:39.613Z,999.63
2019-01-15T07:12:39.622Z,999.52
2019-01-15T07:13:39.640Z,999.54
2019-01-15T07:14:39.660Z,999.54
2019-01-15T07:15:39.671Z,999.54
2019-01-15T07:16:39.686Z,999.49
2019-01-15T07:17:39.704Z,999.55
2019-01-15T07:18:39.723Z,999.57
2019-01-15T07:19:39.736Z,999.53
2019-01-15T07:20:39.752Z,999.55
2019-01-15T07:21:39.769Z,999.56
2019-01-15T07:22:39.785Z,999.53
2019-01-15T07:23:39.799Z,999.6
2019-01-15T07:24:39.815Z,999.61
2019-01-15T07:25:39.836Z,999.63
2019-01-15T07:26:39.851Z,999.6
2019-01-15T07:27:39.868Z,999.66
2019-01-15T07:28:39.880Z,999.66
2019-01-15T07:29:39.900Z,999.74
2019-01-15T07:30:39.914Z,999.73
2019-01-15T07:31:39.929Z,999.76
2019-01-15T07:32:39.945Z,999.8
2019-01-15T07:33:39.960Z,999.8
2019-01-15T07:34:39.976Z,999.81
2019-01-15T07:35:39.993Z,999.77
2019-01-15T07:36:40.012Z,999.83
2019-01-15T07:37:40.028Z,999.78
2019-01-15T07:38:40.043Z,999.71
2019-01-15T07:39:40.057Z,999.69
2019-01-15T07:40:40.074Z,999.73
2019-01-15T07:41:40.092Z,999.68
2019-01-15T07:42:40.106Z,999.7
2019-01-15T07:43:40.121Z,999.77
2019-01-15T07:44:40.139Z,999.76
2019-01-15T07:45:40.155Z,999.78
2019-01-15T07:46:40.172Z,999.71
2019-01-15T07:47:40.186Z,999.73
2019-01-15T07:48:40.202Z,999.74
2019-01-15T07:49:40.218Z,999.69
2019-01-15T07:50:40.236Z,999.76
2019-01-15T07:51:40.251Z,999.7
2019-01-15T07:52:40.269Z,999.71
2019-01-15T07:53:40.284Z,999.7
2019-01-15T07:54:40.299Z,999.78
2019-01-15T07:55:40.316Z,999.82
2019-01-15T07:56:40.332Z,999.74
2019-01-15T07:57:40.348Z,999.75
2019-01-15T07:58:40.364Z,999.77
2019-01-15T07:59:40.380Z,999.77
2019-01-15T08:00:40.397Z,999.72
2019-01-15T08:01:40.413Z,999.73
2019-01-15T08:02:40.431Z,999.69
2019-01-15T08:03:40.449Z,999.7
2019-01-15T08:04:40.465Z,999.68
2019-01-15T08:05:40.481Z,999.7
2019-01-15T08:06:40.492Z,999.71
2019-01-15T08:07:40.516Z,999.64
2019-01-15T08:08:40.526Z,999.62
2019-01-15T08:09:40.545Z,999.61
2019-01-15T08:10:41.665Z,999.69
2019-01-15T08:11:40.579Z,999.61
2019-01-15T08:12:40.590Z,999.65
2019-01-15T08:13:40.608Z,999.66
2019-01-15T08:14:40.628Z,999.67
2019-01-15T08:15:40.640Z,999.75
2019-01-15T08:16:40.655Z,999.73
2019-01-15T08:17:40.676Z,999.71
2019-01-15T08:18:40.688Z,999.74
2019-01-15T08:19:40.704Z,999.78
2019-01-15T08:20:40.726Z,999.73
2019-01-15T08:21:40.739Z,999.74
2019-01-15T08:22:40.756Z,999.79
2019-01-15T08:23:40.774Z,999.84
2019-01-15T08:24:40.786Z,999.79
2019-01-15T08:25:40.802Z,999.87
2019-01-15T08:26:40.820Z,999.89
2019-01-15T08:27:40.835Z,999.88
2019-01-15T08:28:40.853Z,999.88
2019-01-15T08:29:40.867Z,999.85
2019-01-15T08:30:40.882Z,999.81
2019-01-15T08:31:40.899Z,999.84
2019-01-15T08:32:40.916Z,999.8
2019-01-15T08:33:40.936Z,999.86
2019-01-15T08:34:40.948Z,999.81
2019-01-15T08:35:40.969Z,999.82
2019-01-15T08:36:41.032Z,999.76
2019-01-15T08:37:40.996Z,999.83
2019-01-15T08:38:41.012Z,999.79
2019-01-15T08:39:41.031Z,999.83
2019-01-15T08:40:41.049Z,999.77
2019-01-15T08:41:41.061Z,999.79
2019-01-15T08:42:41.078Z,999.8
2019-01-15T08:43:41.095Z,999.83
2019-01-15T08:44:41.111Z,999.83
2019-01-15T08:45:41.132Z,999.77
2019-01-15T08:46:41.148Z,999.72
2019-01-15T08:47:41.159Z,999.69
2019-01-15T08:48:41.175Z,999.74
2019-01-15T08:49:41.192Z,999.77
2019-01-15T08:50:41.207Z,999.75
2019-01-15T08:51:41.224Z,999.74
2019-01-15T08:52:41.245Z,999.76
2019-01-15T08:53:41.259Z,999.72
2019-01-15T08:54:41.273Z,999.74
2019-01-15T08:55:41.291Z,999.73
2019-01-15T08:56:41.306Z,999.7
2019-01-15T08:57:41.325Z,999.68
2019-01-15T08:58:41.340Z,999.66
2019-01-15T08:59:41.354Z,999.67
2019-01-15T09:00:41.372Z,999.63
2019-01-15T09:01:41.387Z,999.71
2019-01-15T09:02:41.404Z,999.69
2019-01-15T09:03:41.420Z,999.69
2019-01-15T09:04:41.436Z,999.69
2019-01-15T09:05:42.179Z,999.69
2019-01-15T09:06:41.474Z,999.63
2019-01-15T09:07:41.486Z,999.62
2019-01-15T09:08:41.503Z,999.64
2019-01-15T09:09:41.522Z,999.61
2019-01-15T09:10:41.535Z,999.62
2019-01-15T09:11:41.555Z,999.58
2019-01-15T09:12:41.573Z,999.65
2019-01-15T09:13:41.582Z,999.61
2019-01-15T09:14:41.600Z,999.67
2019-01-15T09:15:41.620Z,999.59
2019-01-15T09:16:41.637Z,999.6
2019-01-15T09:17:41.651Z,999.6
2019-01-15T09:18:41.666Z,999.69
2019-01-15T09:19:41.684Z,999.63
2019-01-15T09:20:41.698Z,999.61
2019-01-15T09:21:41.716Z,999.6
2019-01-15T09:22:41.733Z,999.62
2019-01-15T09:23:41.749Z,999.62
2019-01-15T09:24:41.769Z,999.66
2019-01-15T09:25:41.783Z,999.63
2019-01-15T09:26:41.801Z,999.6
2019-01-15T09:27:41.813Z,999.66
2019-01-15T09:28:41.834Z,999.65
2019-01-15T09:29:41.873Z,999.59
2019-01-15T09:30:41.863Z,999.64
2019-01-15T09:31:41.880Z,999.54
2019-01-15T09:32:41.897Z,999.63
2019-01-15T09:33:41.917Z,999.57
2019-01-15T09:34:41.928Z,999.62
2019-01-15T09:35:41.945Z,999.54
2019-01-15T09:36:41.962Z,999.54
2019-01-15T09:37:41.982Z,999.6
2019-01-15T09:38:41.994Z,999.62
2019-01-15T09:39:42.011Z,999.6
2019-01-15T09:40:42.032Z,999.58
2019-01-15T09:41:42.044Z,999.62
2019-01-15T09:42:42.065Z,999.61
2019-01-15T09:43:42.076Z,999.5
2019-01-15T09:44:42.094Z,999.6
2019-01-15T09:45:42.110Z,999.57
2019-01-15T09:46:42.125Z,999.62
2019-01-15T09:47:42.142Z,999.61
2019-01-15T09:48:42.159Z,999.57
2019-01-15T09:49:42.175Z,999.57
2019-01-15T09:50:42.192Z,999.56
2019-01-15T09:51:42.212Z,999.61
2019-01-15T09:52:42.228Z,999.57
2019-01-15T09:53:42.241Z,999.58
2019-01-15T09:54:42.261Z,999.59
2019-01-15T09:55:42.274Z,999.57
2019-01-15T09:56:42.293Z,999.5
2019-01-15T09:57:42.311Z,999.49
2019-01-15T09:58:42.324Z,999.51
2019-01-15T09:59:42.340Z,999.41
2019-01-15T10:00:42.355Z,999.48
2019-01-15T10:01:42.376Z,999.49
2019-01-15T10:02:42.392Z,999.47
2019-01-15T10:03:42.406Z,999.49
2019-01-15T10:04:42.423Z,999.5
2019-01-15T10:05:42.442Z,999.44
2019-01-15T10:06:42.459Z,999.4
2019-01-15T10:07:42.469Z,999.37
2019-01-15T10:08:42.492Z,999.5
2019-01-15T10:09:42.508Z,999.41
2019-01-15T10:10:42.521Z,999.39
2019-01-15T10:11:42.536Z,999.46
2019-01-15T10:12:42.552Z,999.36
2019-01-15T10:13:42.569Z,999.35
2019-01-15T10:14:42.586Z,999.43
2019-01-15T10:15:42.602Z,999.39
2019-01-15T10:16:42.618Z,999.34
2019-01-15T10:17:42.635Z,999.35
2019-01-15T10:18:42.655Z,999.32
2019-01-15T10:19:42.674Z,999.33
2019-01-15T10:20:42.685Z,999.28
2019-01-15T10:21:42.702Z,999.29
2019-01-15T10:22:42.718Z,999.26
2019-01-15T10:23:42.734Z,999.29
2019-01-15T10:24:42.751Z,999.28
2019-01-15T10:25:42.765Z,999.33
2019-01-15T10:26:42.788Z,999.3
2019-01-15T10:27:42.799Z,999.3
2019-01-15T10:28:42.821Z,999.23
2019-01-15T10:29:42.832Z,999.26
2019-01-15T10:30:42.849Z,999.25
2019-01-15T10:31:42.870Z,999.28
2019-01-15T10:32:42.886Z,999.19
2019-01-15T10:33:42.902Z,999.21
2019-01-15T10:34:42.919Z,999.2
2019-01-15T10:35:42.932Z,999.19
2019-01-15T10:36:42.947Z,999.23
2019-01-15T10:37:42.963Z,999.26
2019-01-15T10:38:42.981Z,999.14
2019-01-15T10:39:42.997Z,999.18
2019-01-15T10:40:43.015Z,999.18
2019-01-15T10:41:43.029Z,999.18
2019-01-15T10:42:43.050Z,999.23
2019-01-15T10:43:43.064Z,999.17
2019-01-15T10:44:48.556Z,999.21
2019-01-15T10:45:43.100Z,999.14
2019-01-15T10:46:43.113Z,999.2
2019-01-15T10:47:43.132Z,999.22
2019-01-15T10:48:43.146Z,999.17
2019-01-15T10:49:43.166Z,999.12
2019-01-15T10:50:43.180Z,999.14
2019-01-15T10:51:43.196Z,999.19
2019-01-15T10:52:43.212Z,999.15
2019-01-15T10:53:43.229Z,999.09
2019-01-15T10:54:43.247Z,999.1
2019-01-15T10:55:43.263Z,999.07
2019-01-15T10:56:43.279Z,999
2019-01-15T10:57:43.298Z,999.04
2019-01-15T10:58:43.311Z,999
2019-01-15T10:59:43.333Z,998.97
2019-01-15T11:00:43.346Z,998.93
2019-01-15T11:01:43.362Z,998.91
2019-01-15T11:02:43.428Z,998.92
2019-01-15T11:03:43.397Z,998.98
2019-01-15T11:04:43.413Z,998.97
2019-01-15T11:05:43.428Z,998.98
2019-01-15T11:06:43.445Z,999.01
2019-01-15T11:07:43.462Z,999
2019-01-15T11:08:43.479Z,998.97
2019-01-15T11:09:43.494Z,999
2019-01-15T11:10:43.515Z,999
2019-01-15T11:11:43.528Z,999.02
2019-01-15T11:12:43.547Z,998.98
2019-01-15T11:13:43.560Z,999
2019-01-15T11:14:43.578Z,999
2019-01-15T11:15:43.680Z,998.98
2019-01-15T11:16:43.619Z,999
2019-01-15T11:17:43.627Z,998.99
2019-01-15T11:18:43.645Z,999
2019-01-15T11:19:43.661Z,999
2019-01-15T11:20:43.677Z,998.95
2019-01-15T11:21:43.695Z,998.94
2019-01-15T11:22:43.710Z,998.93
2019-01-15T11:23:43.735Z,998.93
2019-01-15T11:24:43.744Z,998.93
2019-01-15T11:25:43.760Z,998.93
2019-01-15T11:26:43.778Z,998.92
2019-01-15T11:27:43.796Z,998.88
2019-01-15T11:28:43.811Z,998.91
2019-01-15T11:29:43.832Z,998.87
2019-01-15T11:30:43.846Z,998.89
2019-01-15T11:31:43.860Z,998.88
2019-01-15T11:32:43.876Z,998.9
2019-01-15T11:33:43.895Z,998.86
2019-01-15T11:34:43.918Z,998.9
2019-01-15T11:35:43.931Z,998.84
2019-01-15T11:36:43.947Z,998.86
2019-01-15T11:37:43.961Z,998.83
2019-01-15T11:38:43.979Z,998.83
2019-01-15T11:39:43.995Z,998.8
2019-01-15T11:40:44.011Z,998.79
2019-01-15T11:41:44.029Z,998.69
2019-01-15T11:42:44.072Z,998.69
2019-01-15T11:43:44.061Z,998.7
2019-01-15T11:44:44.078Z,998.75
2019-01-15T11:45:44.100Z,998.68
2019-01-15T11:46:44.113Z,998.65
2019-01-15T11:47:44.128Z,998.66
2019-01-15T11:48:44.145Z,998.65
2019-01-15T11:49:44.162Z,998.55
2019-01-15T11:50:44.182Z,998.58
2019-01-15T11:51:44.198Z,998.57
2019-01-15T11:52:44.218Z,998.57
2019-01-15T11:53:44.232Z,998.64
2019-01-15T11:54:44.246Z,998.58
2019-01-15T11:55:44.266Z,998.63
2019-01-15T11:56:44.284Z,998.58
2019-01-15T11:57:44.296Z,998.6
2019-01-15T11:58:44.316Z,998.59
2019-01-15T11:59:44.329Z,998.55
2019-01-15T12:00:44.349Z,998.53
2019-01-15T12:01:44.367Z,998.53
2019-01-15T12:02:44.381Z,998.52
2019-01-15T12:03:44.396Z,998.51
2019-01-15T12:04:44.413Z,998.55
2019-01-15T12:05:44.434Z,998.48
2019-01-15T12:06:44.446Z,998.46
2019-01-15T12:07:44.465Z,998.46
2019-01-15T12:08:44.489Z,998.48
2019-01-15T12:09:44.498Z,998.44
2019-01-15T12:10:44.522Z,998.42
2019-01-15T12:11:44.530Z,998.39
2019-01-15T12:12:44.550Z,998.52
2019-01-15T12:13:44.564Z,998.42
2019-01-15T12:14:44.582Z,998.31
2019-01-15T12:15:44.602Z,998.34
2019-01-15T12:16:44.615Z,998.33
2019-01-15T12:17:44.636Z,998.37
2019-01-15T12:18:44.649Z,998.34
2019-01-15T12:19:44.667Z,998.29